createdAt,value
2019-02-21T00:02:25.535Z,7.50
2019-02-21T00:04:53.745Z,6.90
2019-02-21T00:07:21.924Z,7.43
2019-02-21T00:09:50.111Z,7.57
2019-02-21T00:12:18.293Z,7.90
2019-02-21T00:14:46.518Z,8.37
2019-02-21T00:17:14.705Z,7.73
2019-02-21T00:19:42.880Z,8.50
2019-02-21T00:22:11.557Z,8.13
2019-02-21T00:24:40.107Z,8.57
2019-02-21T00:27:08.440Z,8.35
2019-02-21T00:29:36.623Z,8.10
2019-02-21T00:32:04.818Z,7.83
2019-02-21T00:34:33.046Z,8.40
2019-02-21T00:37:01.305Z,8.37
2019-02-21T00:39:29.513Z,8.90
2019-02-21T00:41:57.725Z,10.27
2019-02-21T00:44:25.966Z,9.57
2019-02-21T00:46:55.845Z,10.10
2019-02-21T00:49:24.062Z,8.87
2019-02-21T00:51:52.241Z,8.25
2019-02-21T00:54:20.498Z,8.45
2019-02-21T00:56:48.740Z,8.67
2019-02-21T00:59:16.993Z,9.23
2019-02-21T01:01:45.171Z,9.40
2019-02-21T01:04:13.383Z,9.23
2019-02-21T01:06:41.634Z,9.07
2019-02-21T01:09:09.847Z,8.70
2019-02-21T01:11:38.093Z,9.53
2019-02-21T01:14:06.579Z,9.43
2019-02-21T01:16:34.785Z,8.60
2019-02-21T01:19:02.977Z,8.73
2019-02-21T01:21:31.336Z,9.20
2019-02-21T01:23:59.519Z,9.60
2019-02-21T01:26:27.739Z,9.70
2019-02-21T01:28:55.916Z,9.10
2019-02-21T01:31:24.137Z,9.27
2019-02-21T01:33:52.325Z,10.00
2019-02-21T01:36:20.552Z,9.63
2019-02-21T01:38:48.805Z,8.83
2019-02-21T01:41:17.021Z,9.37
2019-02-21T01:43:45.237Z,10.17
2019-02-21T01:46:13.496Z,10.30
2019-02-21T01:48:41.790Z,9.30
2019-02-21T01:51:10.006Z,10.47
2019-02-21T01:53:38.179Z,10.33
2019-02-21T01:56:06.407Z,9.47
2019-02-21T01:58:34.614Z,10.33
2019-02-21T02:01:08.571Z,9.30
2019-02-21T02:03:32.748Z,10.07
2019-02-21T02:06:00.931Z,10.90
2019-02-21T02:08:29.141Z,9.75
2019-02-21T02:10:57.336Z,9.57
2019-02-21T02:13:25.575Z,11.33
2019-02-21T02:15:53.777Z,10.80
2019-02-21T02:18:21.965Z,10.23
2019-02-21T02:20:50.197Z,11.03
2019-02-21T02:23:18.383Z,10.97
2019-02-21T02:25:46.607Z,11.30
2019-02-21T02:28:14.861Z,10.40
2019-02-21T02:30:43.085Z,11.70
2019-02-21T02:33:11.312Z,11.80
2019-02-21T02:35:39.493Z,12.10
2019-02-21T02:38:08.636Z,10.83
2019-02-21T02:40:36.828Z,11.40
2019-02-21T02:43:05.078Z,11.93
2019-02-21T02:45:33.290Z,12.93
2019-02-21T02:48:01.508Z,12.17
2019-02-21T02:50:29.784Z,11.60
2019-02-21T02:52:58.077Z,12.20
2019-02-21T02:55:26.401Z,12.30
2019-02-21T02:57:54.580Z,12.00
2019-02-21T03:00:22.801Z,12.17
2019-02-21T03:02:51.117Z,13.40
2019-02-21T03:05:19.336Z,12.60
2019-02-21T03:07:47.592Z,13.63
2019-02-21T03:10:15.845Z,12.40
2019-02-21T03:12:44.027Z,13.77
2019-02-21T03:15:12.382Z,12.53
2019-02-21T03:17:40.608Z,13.17
2019-02-21T03:20:09.407Z,13.20
2019-02-21T03:22:37.699Z,13.17
2019-02-21T03:25:06.468Z,13.90
2019-02-21T03:27:34.685Z,13.07
2019-02-21T03:30:03.071Z,13.23
2019-02-21T03:32:31.358Z,13.70
2019-02-21T03:34:59.569Z,14.13
2019-02-21T03:37:27.791Z,13.53
2019-02-21T03:39:56.005Z,13.27
2019-02-21T03:42:24.188Z,14.37
2019-02-21T03:44:52.392Z,14.97
2019-02-21T03:47:20.612Z,13.80
2019-02-21T03:49:48.837Z,14.43
2019-02-21T03:52:17.037Z,14.10
2019-02-21T03:54:45.228Z,15.07
2019-02-21T03:57:13.454Z,14.17
2019-02-21T03:59:41.701Z,14.80
2019-02-21T04:02:09.918Z,15.47
2019-02-21T04:04:38.242Z,16.30
2019-02-21T04:07:06.468Z,15.70
2019-02-21T04:09:34.745Z,16.50
2019-02-21T04:12:02.963Z,16.57
2019-02-21T04:14:31.282Z,15.90
2019-02-21T04:16:59.500Z,15.50
2019-02-21T04:19:27.724Z,14.60
2019-02-21T04:21:55.921Z,15.77
2019-02-21T04:24:24.101Z,17.53
2019-02-21T04:26:52.323Z,16.27
2019-02-21T04:29:20.640Z,15.63
2019-02-21T04:31:48.864Z,17.30
2019-02-21T04:34:17.048Z,15.87
2019-02-21T04:36:45.298Z,16.87
2019-02-21T04:39:13.509Z,17.43
2019-02-21T04:41:41.690Z,17.40
2019-02-21T04:44:09.942Z,18.17
2019-02-21T04:46:38.154Z,16.53
2019-02-21T04:49:06.376Z,16.20
2019-02-21T04:51:34.557Z,16.80
2019-02-21T04:54:02.776Z,16.80
2019-02-21T04:56:30.990Z,17.17
2019-02-21T04:58:59.208Z,18.90
2019-02-21T05:01:27.435Z,17.10
2019-02-21T05:03:55.731Z,18.50
2019-02-21T05:06:23.916Z,17.00
2019-02-21T05:08:52.130Z,17.60
2019-02-21T05:11:20.419Z,18.63
2019-02-21T05:13:48.642Z,18.50
2019-02-21T05:16:16.864Z,18.53
2019-02-21T05:18:45.086Z,18.15
2019-02-21T05:21:13.369Z,19.40
2019-02-21T05:23:41.560Z,19.20
2019-02-21T05:26:11.424Z,18.80
2019-02-21T05:28:41.297Z,19.10
2019-02-21T05:31:17.100Z,20.37
2019-02-21T05:33:56.135Z,19.37
2019-02-21T05:36:26.067Z,20.23
2019-02-21T05:38:55.984Z,20.97
2019-02-21T05:41:35.089Z,21.07
2019-02-21T05:44:04.970Z,21.80
2019-02-21T05:46:51.094Z,21.60
2019-02-21T05:49:26.974Z,23.07
2019-02-21T05:51:56.899Z,21.40
2019-02-21T05:54:27.356Z,21.20
2019-02-21T05:56:59.899Z,23.07
2019-02-21T05:59:29.762Z,22.33
2019-02-21T06:01:59.653Z,22.63
2019-02-21T06:04:46.161Z,24.30
2019-02-21T06:07:16.057Z,22.27
2019-02-21T06:09:48.333Z,21.90
2019-02-21T06:12:18.196Z,22.03
2019-02-21T06:14:51.045Z,22.47
2019-02-21T06:17:21.005Z,21.40
2019-02-21T06:19:56.333Z,22.50
2019-02-21T06:22:29.104Z,20.57
2019-02-21T06:24:58.922Z,21.60
2019-02-21T06:27:37.786Z,21.30
2019-02-21T06:30:07.841Z,20.87
2019-02-21T06:32:36.062Z,22.60
2019-02-21T06:35:05.485Z,21.93
2019-02-21T06:37:33.701Z,21.43
2019-02-21T06:40:01.883Z,21.63
2019-02-21T06:42:30.143Z,20.63
2019-02-21T06:44:58.321Z,21.87
2019-02-21T06:47:26.577Z,22.00
2019-02-21T06:49:54.756Z,21.23
2019-02-21T06:52:22.988Z,21.37
2019-02-21T06:54:51.242Z,21.10
2019-02-21T06:57:19.420Z,22.73
2019-02-21T06:59:47.673Z,23.37
2019-02-21T07:02:15.856Z,22.23
2019-02-21T07:04:44.105Z,23.03
2019-02-21T07:07:12.322Z,21.53
2019-02-21T07:09:40.509Z,21.47
2019-02-21T07:12:10.671Z,23.37
2019-02-21T07:14:38.795Z,22.27
2019-02-21T07:17:08.528Z,22.60
2019-02-21T07:19:36.986Z,21.63
2019-02-21T07:22:06.272Z,22.47
2019-02-21T07:24:35.098Z,21.60
2019-02-21T07:27:03.348Z,22.03
2019-02-21T07:29:31.564Z,21.57
2019-02-21T07:31:59.784Z,20.83
2019-02-21T07:34:30.359Z,22.03
2019-02-21T07:36:57.898Z,20.30
2019-02-21T07:39:35.656Z,22.67
2019-02-21T07:41:56.031Z,21.67
2019-02-21T07:44:24.244Z,20.90
2019-02-21T07:46:53.440Z,21.20
2019-02-21T07:49:21.827Z,20.90
2019-02-21T07:51:50.090Z,20.50
2019-02-21T07:54:18.322Z,22.00
2019-02-21T07:56:46.576Z,22.80
2019-02-21T07:59:14.780Z,21.83
2019-02-21T08:01:42.964Z,21.17
2019-02-21T08:04:11.211Z,20.87
2019-02-21T08:06:39.427Z,21.30
2019-02-21T08:09:08.213Z,22.40
2019-02-21T08:11:36.408Z,21.60
2019-02-21T08:14:04.626Z,22.30
2019-02-21T08:16:32.874Z,21.90
2019-02-21T08:19:01.060Z,21.30
2019-02-21T08:21:29.484Z,22.67
2019-02-21T08:23:59.286Z,22.50
2019-02-21T08:26:27.596Z,23.17
2019-02-21T08:28:55.817Z,22.50
2019-02-21T08:31:24.109Z,22.93
2019-02-21T08:33:59.873Z,22.63
2019-02-21T08:36:28.053Z,23.67
2019-02-21T08:38:56.313Z,24.10
2019-02-21T08:41:25.808Z,23.50
2019-02-21T08:43:54.221Z,24.67
2019-02-21T08:46:22.485Z,25.63
2019-02-21T08:48:50.779Z,23.57
2019-02-21T08:51:19.528Z,25.80
2019-02-21T08:53:47.725Z,25.53
2019-02-21T08:56:16.046Z,24.53
2019-02-21T08:58:44.276Z,24.27
2019-02-21T09:01:12.533Z,25.47
2019-02-21T09:03:40.745Z,25.10
2019-02-21T09:06:08.962Z,24.73
2019-02-21T09:08:37.363Z,23.23
2019-02-21T09:11:05.733Z,23.77
2019-02-21T09:13:34.045Z,23.60
2019-02-21T09:16:02.231Z,24.00
2019-02-21T09:18:30.452Z,24.37
2019-02-21T09:20:58.636Z,24.10
2019-02-21T09:23:26.899Z,23.50
2019-02-21T09:25:55.109Z,24.13
2019-02-21T09:28:23.291Z,26.30
2019-02-21T09:30:51.489Z,25.10
2019-02-21T09:33:21.310Z,24.90
2019-02-21T09:35:49.684Z,23.13
2019-02-21T09:38:17.875Z,24.13
2019-02-21T09:40:46.075Z,24.07
2019-02-21T09:43:14.264Z,23.77
2019-02-21T09:45:42.484Z,20.67
2019-02-21T09:48:12.061Z,24.57
2019-02-21T09:50:40.441Z,24.70
2019-02-21T09:53:08.690Z,22.40
2019-02-21T09:55:36.907Z,22.47
2019-02-21T09:58:05.244Z,23.53
2019-02-21T10:00:35.901Z,23.93
2019-02-21T10:03:03.404Z,23.70
2019-02-21T10:05:31.641Z,23.17
2019-02-21T10:07:59.849Z,22.03
2019-02-21T10:10:28.102Z,21.50
2019-02-21T10:12:56.331Z,22.07
2019-02-21T10:15:24.613Z,21.93
2019-02-21T10:17:53.503Z,22.57
2019-02-21T10:20:22.116Z,21.80
2019-02-21T10:22:50.334Z,20.73
2019-02-21T10:25:26.047Z,20.80
2019-02-21T10:27:54.257Z,22.27
2019-02-21T10:30:23.120Z,22.17
2019-02-21T10:32:51.511Z,20.53
2019-02-21T10:35:19.706Z,21.27
2019-02-21T10:37:47.987Z,20.63
2019-02-21T10:40:16.469Z,20.50
2019-02-21T10:42:44.718Z,20.80
2019-02-21T10:45:16.849Z,21.00
2019-02-21T10:47:45.072Z,20.90
2019-02-21T10:50:14.457Z,21.17
2019-02-21T10:52:42.790Z,18.47
2019-02-21T10:55:11.469Z,19.10
2019-02-21T10:57:39.686Z,21.70
2019-02-21T11:00:09.437Z,21.23
2019-02-21T11:02:37.619Z,22.30
2019-02-21T11:05:07.580Z,21.70
2019-02-21T11:07:35.829Z,20.53
2019-02-21T11:10:05.588Z,20.80
2019-02-21T11:12:33.909Z,20.97
2019-02-21T11:15:02.129Z,19.43
2019-02-21T11:17:30.381Z,19.40
2019-02-21T11:19:58.617Z,20.00
2019-02-21T11:22:26.828Z,18.83
2019-02-21T11:24:55.045Z,18.23
2019-02-21T11:29:50.662Z,18.80
2019-02-21T11:32:18.885Z,15.40
2019-02-21T11:37:14.515Z,16.97
2019-02-21T11:39:42.785Z,15.90
2019-02-21T11:42:10.968Z,16.57
2019-02-21T11:44:39.180Z,17.23
2019-02-21T11:47:07.375Z,16.40
2019-02-21T11:49:35.589Z,16.03
2019-02-21T11:52:10.283Z,14.10
2019-02-21T11:54:33.722Z,15.70
2019-02-21T11:57:01.971Z,13.00
2019-02-21T11:59:30.167Z,15.40
2019-02-21T12:01:58.424Z,14.10
2019-02-21T12:04:26.713Z,15.40
2019-02-21T12:06:54.895Z,14.70
2019-02-21T12:09:23.121Z,14.03
2019-02-21T12:11:51.339Z,13.80
2019-02-21T12:14:19.561Z,14.47
2019-02-21T12:16:47.980Z,15.00
2019-02-21T12:19:16.253Z,15.50
2019-02-21T12:21:44.540Z,14.63
2019-02-21T12:24:12.946Z,13.47
2019-02-21T12:26:41.161Z,14.30
2019-02-21T12:29:09.382Z,13.87
2019-02-21T12:31:37.598Z,13.50
2019-02-21T12:34:05.841Z,12.40
2019-02-21T12:36:34.031Z,14.53
2019-02-21T12:39:02.314Z,14.90
2019-02-21T12:41:30.497Z,13.80
2019-02-21T12:43:58.717Z,13.50
2019-02-21T12:46:26.981Z,13.30
2019-02-21T12:48:55.188Z,13.70
2019-02-21T12:51:23.405Z,13.30
2019-02-21T12:53:51.650Z,12.73
2019-02-21T12:56:19.869Z,13.10
2019-02-21T12:58:48.121Z,13.53
2019-02-21T13:01:16.337Z,13.60
2019-02-21T13:03:44.572Z,12.80
2019-02-21T13:06:12.756Z,13.07
2019-02-21T13:08:41.009Z,13.50
2019-02-21T13:11:09.188Z,13.97
2019-02-21T13:13:37.453Z,12.20
2019-02-21T13:16:05.664Z,14.67
2019-02-21T13:18:33.877Z,13.03
2019-02-21T13:21:02.135Z,12.53
2019-02-21T13:23:30.360Z,13.00
2019-02-21T13:25:58.576Z,12.30
2019-02-21T13:28:26.759Z,12.70
2019-02-21T13:30:55.007Z,12.30
2019-02-21T13:33:23.219Z,11.60
2019-02-21T13:35:52.891Z,13.10
2019-02-21T13:38:21.420Z,12.03
2019-02-21T13:40:49.697Z,12.13
2019-02-21T13:43:17.984Z,12.57
2019-02-21T13:45:46.247Z,12.70
2019-02-21T13:48:14.478Z,12.60
2019-02-21T13:50:42.685Z,12.93
2019-02-21T13:53:10.873Z,12.13
2019-02-21T13:55:39.099Z,13.60
2019-02-21T13:58:07.397Z,13.40
2019-02-21T14:00:35.725Z,13.30
2019-02-21T14:03:03.977Z,12.83
2019-02-21T14:05:32.257Z,12.47
2019-02-21T14:08:00.517Z,12.77
2019-02-21T14:10:28.732Z,11.63
2019-02-21T14:12:56.988Z,11.03
2019-02-21T14:15:29.739Z,10.80
2019-02-21T14:17:57.937Z,9.70
2019-02-21T14:20:26.163Z,9.33
2019-02-21T14:22:54.383Z,10.20
2019-02-21T14:25:22.692Z,9.80
2019-02-21T14:27:50.907Z,10.17
2019-02-21T14:30:19.784Z,9.43
2019-02-21T14:32:47.993Z,9.27
2019-02-21T14:35:16.335Z,10.20
2019-02-21T14:37:44.778Z,10.73
2019-02-21T14:40:14.077Z,11.23
2019-02-21T14:42:42.366Z,12.73
2019-02-21T14:45:12.636Z,11.00
2019-02-21T14:47:40.948Z,11.43
2019-02-21T14:50:10.248Z,11.83
2019-02-21T14:52:38.436Z,12.33
2019-02-21T14:55:08.192Z,13.57
2019-02-21T14:57:40.904Z,13.27
2019-02-21T15:00:08.043Z,13.67
2019-02-21T15:02:36.298Z,14.97
2019-02-21T15:05:05.619Z,13.90
2019-02-21T15:07:33.848Z,14.90
2019-02-21T15:10:02.033Z,14.07
2019-02-21T15:12:30.258Z,13.87
2019-02-21T15:14:58.484Z,14.30
2019-02-21T15:17:26.733Z,12.73
2019-02-21T15:19:54.949Z,13.67
2019-02-21T15:22:23.170Z,14.17
2019-02-21T15:24:51.378Z,13.67
2019-02-21T15:27:19.591Z,13.47
2019-02-21T15:29:47.840Z,14.00
2019-02-21T15:32:16.101Z,13.77
2019-02-21T15:34:47.063Z,13.40
2019-02-21T15:37:14.229Z,14.03
2019-02-21T15:39:43.031Z,14.23
2019-02-21T15:42:11.349Z,14.40
2019-02-21T15:44:39.593Z,14.70
2019-02-21T15:47:07.815Z,14.33
2019-02-21T15:49:36.069Z,14.97
2019-02-21T15:52:04.304Z,13.93
2019-02-21T15:54:32.562Z,15.60
2019-02-21T15:57:00.777Z,13.30
2019-02-21T15:59:28.964Z,14.50
2019-02-21T16:01:57.229Z,14.73
2019-02-21T16:04:25.518Z,15.80
2019-02-21T16:06:53.772Z,15.10
2019-02-21T16:09:22.000Z,14.07
2019-02-21T16:11:50.212Z,14.23
2019-02-21T16:14:18.486Z,15.50
2019-02-21T16:16:46.669Z,14.23
2019-02-21T16:19:14.896Z,15.17
2019-02-21T16:21:43.138Z,14.60
2019-02-21T16:24:11.401Z,14.83
2019-02-21T16:26:39.604Z,14.07
2019-02-21T16:29:07.878Z,14.50
2019-02-21T16:31:36.105Z,14.27
2019-02-21T16:34:04.401Z,14.40
2019-02-21T16:36:32.584Z,14.60
2019-02-21T16:39:00.772Z,14.10
2019-02-21T16:41:36.054Z,15.77
2019-02-21T16:43:58.940Z,14.03
2019-02-21T16:46:27.127Z,16.47
2019-02-21T16:48:55.355Z,14.23
2019-02-21T16:51:23.546Z,14.50
2019-02-21T16:53:51.728Z,14.07
2019-02-21T16:56:20.068Z,15.60
2019-02-21T16:58:48.356Z,15.10
2019-02-21T17:01:16.669Z,16.10
2019-02-21T17:03:45.981Z,16.20
2019-02-21T17:06:14.239Z,16.00
2019-02-21T17:08:42.422Z,16.13
2019-02-21T17:11:10.633Z,16.73
2019-02-21T17:13:38.902Z,15.67
2019-02-21T17:16:07.144Z,16.50
2019-02-21T17:18:35.405Z,16.87
2019-02-21T17:21:03.696Z,16.63
2019-02-21T17:23:31.926Z,17.50
2019-02-21T17:26:00.148Z,16.67
2019-02-21T17:28:28.403Z,17.47
2019-02-21T17:30:56.583Z,16.77
2019-02-21T17:33:24.825Z,16.80
2019-02-21T17:35:53.008Z,17.70
2019-02-21T17:38:21.253Z,18.17
2019-02-21T17:40:49.439Z,17.63
2019-02-21T17:43:17.669Z,18.97
2019-02-21T17:45:45.852Z,17.37
2019-02-21T17:48:14.078Z,17.90
2019-02-21T17:50:42.350Z,16.60
2019-02-21T17:53:10.570Z,17.03
2019-02-21T17:55:38.786Z,17.20
2019-02-21T17:58:06.968Z,17.50
2019-02-21T18:00:39.395Z,18.07
2019-02-21T18:03:07.645Z,17.00
2019-02-21T18:05:35.825Z,17.57
2019-02-21T18:08:04.205Z,15.70
2019-02-21T18:10:32.450Z,17.40
2019-02-21T18:13:00.706Z,17.43
2019-02-21T18:15:28.918Z,18.03
2019-02-21T18:17:57.169Z,19.60
2019-02-21T18:20:25.381Z,20.70
2019-02-21T18:22:53.561Z,20.80
2019-02-21T18:25:32.247Z,19.87
2019-02-21T18:28:00.440Z,20.77
2019-02-21T18:30:28.661Z,22.80
2019-02-21T18:32:56.855Z,24.50
2019-02-21T18:35:25.072Z,25.80
2019-02-21T18:37:53.285Z,25.03
2019-02-21T18:40:23.075Z,25.67
2019-02-21T18:42:51.284Z,26.93
2019-02-21T18:45:19.537Z,28.40
2019-02-21T18:47:47.828Z,27.87
2019-02-21T18:50:16.037Z,31.30
2019-02-21T18:52:44.289Z,29.90
2019-02-21T18:55:12.472Z,28.20
2019-02-21T18:57:40.734Z,30.57
2019-02-21T19:00:16.774Z,29.00
2019-02-21T19:02:45.039Z,32.30
2019-02-21T19:05:13.389Z,31.67
2019-02-21T19:07:41.579Z,34.30
2019-02-21T19:10:11.280Z,32.83
2019-02-21T19:12:39.505Z,33.50
2019-02-21T19:15:08.700Z,31.20
2019-02-21T19:17:37.001Z,35.70
2019-02-21T19:20:06.749Z,34.07
2019-02-21T19:22:35.001Z,34.37
2019-02-21T19:25:03.797Z,35.57
2019-02-21T19:27:37.191Z,36.40
2019-02-21T19:30:01.978Z,38.20
2019-02-21T19:32:30.188Z,37.27
2019-02-21T19:34:58.444Z,37.10
2019-02-21T19:37:26.657Z,38.33
2019-02-21T19:39:54.873Z,38.30
2019-02-21T19:42:23.104Z,39.90
2019-02-21T19:44:51.296Z,41.27
2019-02-21T19:47:19.565Z,37.17
2019-02-21T19:49:47.844Z,37.97
2019-02-21T19:52:16.060Z,40.20
2019-02-21T19:54:44.477Z,38.80
2019-02-21T19:57:12.733Z,39.60
2019-02-21T19:59:40.952Z,42.90
2019-02-21T20:02:09.204Z,39.90
2019-02-21T20:04:37.392Z,42.27
2019-02-21T20:07:05.649Z,40.40
2019-02-21T20:09:33.835Z,42.83
2019-02-21T20:12:02.080Z,41.60
2019-02-21T20:14:30.331Z,42.77
2019-02-21T20:16:58.570Z,44.80
2019-02-21T20:19:26.769Z,44.33
2019-02-21T20:21:55.049Z,44.43
2019-02-21T20:24:23.273Z,46.97
2019-02-21T20:26:51.537Z,41.40
2019-02-21T20:29:19.804Z,47.70
2019-02-21T20:31:48.017Z,44.50
2019-02-21T20:34:16.243Z,44.77
2019-02-21T20:36:51.034Z,44.20
2019-02-21T20:39:14.449Z,46.63
2019-02-21T20:41:42.709Z,45.80
2019-02-21T20:44:11.013Z,46.17
2019-02-21T20:46:39.333Z,46.40
2019-02-21T20:49:07.602Z,46.50
2019-02-21T20:51:35.788Z,47.20
2019-02-21T20:54:04.020Z,46.13
2019-02-21T20:56:32.247Z,48.90
2019-02-21T20:59:00.447Z,45.93
2019-02-21T21:01:28.917Z,50.43
2019-02-21T21:03:57.143Z,45.70
2019-02-21T21:06:25.396Z,46.27
2019-02-21T21:08:53.653Z,46.70
2019-02-21T21:11:21.869Z,47.53
2019-02-21T21:13:50.116Z,50.17
2019-02-21T21:16:18.310Z,46.50
2019-02-21T21:18:46.564Z,47.37
2019-02-21T21:21:14.787Z,45.67
2019-02-21T21:23:43.006Z,43.43
2019-02-21T21:26:11.224Z,42.70
2019-02-21T21:28:39.420Z,45.87
2019-02-21T21:31:07.669Z,45.70
2019-02-21T21:33:35.859Z,43.00
2019-02-21T21:36:04.189Z,43.67
2019-02-21T21:38:32.466Z,43.30
2019-02-21T21:41:00.723Z,40.40
2019-02-21T21:43:28.908Z,45.37
2019-02-21T21:45:57.150Z,45.27
2019-02-21T21:48:25.412Z,44.87
2019-02-21T21:50:53.695Z,47.27
2019-02-21T21:53:21.888Z,46.20
2019-02-21T21:55:50.153Z,48.33
2019-02-21T21:58:18.370Z,48.30
2019-02-21T22:00:46.597Z,46.50
2019-02-21T22:03:14.785Z,44.63
2019-02-21T22:05:43.009Z,44.30
2019-02-21T22:08:11.261Z,44.50
2019-02-21T22:10:39.538Z,43.67
2019-02-21T22:13:07.788Z,42.30
2019-02-21T22:15:35.983Z,40.10
2019-02-21T22:18:04.203Z,40.33
2019-02-21T22:20:32.430Z,40.87
2019-02-21T22:23:02.089Z,38.23
2019-02-21T22:25:30.617Z,39.60
2019-02-21T22:27:58.925Z,39.47
2019-02-21T22:30:27.172Z,37.50
2019-02-21T22:32:55.389Z,38.47
2019-02-21T22:35:23.645Z,37.60
2019-02-21T22:37:51.823Z,38.60
2019-02-21T22:40:20.423Z,37.10
2019-02-21T22:42:48.648Z,37.70
2019-02-21T22:45:16.908Z,39.10
2019-02-21T22:47:45.135Z,35.53
2019-02-21T22:50:16.915Z,37.70
2019-02-21T22:52:45.143Z,38.60
2019-02-21T22:55:13.336Z,38.40
2019-02-21T22:57:41.564Z,38.53
2019-02-21T23:00:30.991Z,38.30
2019-02-21T23:02:59.950Z,35.90
2019-02-21T23:05:29.709Z,39.00
2019-02-21T23:07:57.990Z,36.13
2019-02-21T23:10:26.261Z,38.40
2019-02-21T23:12:54.484Z,37.10
2019-02-21T23:15:22.777Z,36.00
2019-02-21T23:17:50.959Z,35.43
2019-02-21T23:20:19.297Z,37.30
2019-02-21T23:22:47.509Z,38.57
2019-02-21T23:25:15.696Z,38.23
2019-02-21T23:27:43.898Z,35.30
2019-02-21T23:30:12.179Z,35.40
2019-02-21T23:32:40.423Z,35.60
2019-02-21T23:35:08.977Z,33.70
2019-02-21T23:37:37.236Z,32.00
2019-02-21T23:40:05.560Z,28.20
2019-02-21T23:42:33.777Z,28.97
2019-02-21T23:45:02.024Z,25.90
2019-02-21T23:47:30.278Z,26.97
2019-02-21T23:49:58.490Z,25.60
2019-02-21T23:52:26.688Z,22.90
2019-02-21T23:54:54.909Z,23.30
2019-02-21T23:57:23.104Z,23.43
2019-02-21T23:59:51.796Z,22.60
